sensor_id;sensor_type;location;lat;lon;timestamp;P1;durP1;ratioP1;P2;durP2;ratioP2
55435;SDS011;41307;53.142;6.430;2022-10-16T03:00:26;3.47;;;1.00;;
55435;SDS011;41307;53.142;6.430;2022-10-16T03:03:42;4.63;;;1.05;;
55435;SDS011;41307;53.142;6.430;2022-10-16T11:52:15;5.93;;;1.38;;
55435;SDS011;41307;53.142;6.430;2022-10-16T11:55:19;9.07;;;1.70;;
55435;SDS011;41307;53.142;6.430;2022-10-16T12:19:25;10.05;;;1.73;;
55435;SDS011;41307;53.142;6.430;2022-10-16T12:29:28;8.85;;;1.70;;
55435;SDS011;41307;53.142;6.430;2022-10-16T12:35:24;11.93;;;2.03;;
55435;SDS011;41307;53.142;6.430;2022-10-16T12:48:24;5.30;;;1.25;;
55435;SDS011;41307;53.142;6.430;2022-10-16T12:50:56;6.75;;;1.25;;
55435;SDS011;41307;53.142;6.430;2022-10-16T12:54:10;8.65;;;1.60;;
55435;SDS011;41307;53.142;6.430;2022-10-16T13:03:26;8.10;;;1.33;;
55435;SDS011;41307;53.142;6.430;2022-10-16T13:10:48;7.50;;;1.60;;
55435;SDS011;41307;53.142;6.430;2022-10-16T13:19:16;8.90;;;2.00;;
55435;SDS011;41307;53.142;6.430;2022-10-16T13:25:59;8.15;;;1.45;;
55435;SDS011;41307;53.142;6.430;2022-10-16T13:31:57;9.63;;;1.60;;
55435;SDS011;41307;53.142;6.430;2022-10-16T13:34:44;7.78;;;1.75;;
55435;SDS011;41307;53.142;6.430;2022-10-16T13:37:43;9.00;;;1.65;;
55435;SDS011;41307;53.142;6.430;2022-10-16T13:50:43;9.05;;;1.55;;
55435;SDS011;41307;53.142;6.430;2022-10-16T13:53:17;8.23;;;1.30;;
55435;SDS011;41307;53.142;6.430;2022-10-16T13:55:56;9.13;;;1.48;;
55435;SDS011;41307;53.142;6.430;2022-10-16T13:58:33;10.18;;;1.55;;
55435;SDS011;41307;53.142;6.430;2022-10-16T14:02:33;9.27;;;1.50;;
55435;SDS011;41307;53.142;6.430;2022-10-16T14:04:44;8.38;;;1.25;;
55435;SDS011;41307;53.142;6.430;2022-10-16T14:32:22;10.80;;;1.95;;
55435;SDS011;41307;53.142;6.430;2022-10-16T14:35:29;11.07;;;2.00;;
55435;SDS011;41307;53.142;6.430;2022-10-16T14:45:38;7.80;;;1.50;;
55435;SDS011;41307;53.142;6.430;2022-10-16T14:52:30;12.10;;;1.80;;
55435;SDS011;41307;53.142;6.430;2022-10-16T14:55:39;9.80;;;1.42;;
55435;SDS011;41307;53.142;6.430;2022-10-16T14:58:23;7.85;;;1.67;;
55435;SDS011;41307;53.142;6.430;2022-10-16T15:01:00;8.27;;;1.92;;
55435;SDS011;41307;53.142;6.430;2022-10-16T15:03:57;8.25;;;1.55;;
55435;SDS011;41307;53.142;6.430;2022-10-16T15:06:46;9.00;;;1.60;;
55435;SDS011;41307;53.142;6.430;2022-10-16T15:12:25;4.40;;;1.60;;
55435;SDS011;41307;53.142;6.430;2022-10-16T15:18:39;6.70;;;1.42;;
55435;SDS011;41307;53.142;6.430;2022-10-16T15:33:04;8.73;;;1.63;;
55435;SDS011;41307;53.142;6.430;2022-10-16T15:35:59;8.77;;;1.35;;
55435;SDS011;41307;53.142;6.430;2022-10-16T15:39:03;9.35;;;2.13;;
55435;SDS011;41307;53.142;6.430;2022-10-16T15:41:45;4.90;;;1.75;;
55435;SDS011;41307;53.142;6.430;2022-10-16T15:48:11;9.40;;;1.83;;
55435;SDS011;41307;53.142;6.430;2022-10-16T15:50:51;10.38;;;2.05;;
55435;SDS011;41307;53.142;6.430;2022-10-16T15:53:33;8.38;;;1.83;;
55435;SDS011;41307;53.142;6.430;2022-10-16T15:56:29;8.02;;;1.90;;
55435;SDS011;41307;53.142;6.430;2022-10-16T15:59:33;11.07;;;1.85;;
55435;SDS011;41307;53.142;6.430;2022-10-16T16:02:09;8.13;;;2.00;;
55435;SDS011;41307;53.142;6.430;2022-10-16T16:05:01;7.53;;;1.60;;
55435;SDS011;41307;53.142;6.430;2022-10-16T16:08:10;8.30;;;1.50;;
55435;SDS011;41307;53.142;6.430;2022-10-16T16:11:04;9.85;;;2.03;;
55435;SDS011;41307;53.142;6.430;2022-10-16T16:14:06;8.48;;;2.38;;
55435;SDS011;41307;53.142;6.430;2022-10-16T16:16:51;12.13;;;2.00;;
55435;SDS011;41307;53.142;6.430;2022-10-16T16:19:31;9.77;;;1.95;;
55435;SDS011;41307;53.142;6.430;2022-10-16T16:22:09;9.07;;;2.00;;
55435;SDS011;41307;53.142;6.430;2022-10-16T16:24:58;7.53;;;1.65;;
55435;SDS011;41307;53.142;6.430;2022-10-16T16:27:49;7.22;;;1.65;;
55435;SDS011;41307;53.142;6.430;2022-10-16T16:30:35;7.60;;;1.90;;
55435;SDS011;41307;53.142;6.430;2022-10-16T16:33:15;8.70;;;1.88;;
55435;SDS011;41307;53.142;6.430;2022-10-16T16:36:15;10.98;;;2.20;;
55435;SDS011;41307;53.142;6.430;2022-10-16T16:38:46;8.88;;;2.35;;
55435;SDS011;41307;53.142;6.430;2022-10-16T16:44:47;6.95;;;2.03;;
55435;SDS011;41307;53.142;6.430;2022-10-16T16:47:13;8.70;;;2.20;;
55435;SDS011;41307;53.142;6.430;2022-10-16T16:49:53;6.40;;;2.17;;
55435;SDS011;41307;53.142;6.430;2022-10-16T16:55:26;8.95;;;2.35;;
55435;SDS011;41307;53.142;6.430;2022-10-16T16:57:55;8.48;;;2.65;;
55435;SDS011;41307;53.142;6.430;2022-10-16T17:00:49;11.07;;;2.60;;
55435;SDS011;41307;53.142;6.430;2022-10-16T17:07:16;10.25;;;4.47;;
55435;SDS011;41307;53.142;6.430;2022-10-16T17:10:27;11.73;;;4.53;;
55435;SDS011;41307;53.142;6.430;2022-10-16T17:15:37;9.52;;;3.47;;
55435;SDS011;41307;53.142;6.430;2022-10-16T17:18:32;14.48;;;4.05;;
55435;SDS011;41307;53.142;6.430;2022-10-16T17:21:34;14.77;;;4.65;;
55435;SDS011;41307;53.142;6.430;2022-10-16T17:24:37;9.93;;;5.00;;
55435;SDS011;41307;53.142;6.430;2022-10-16T17:27:47;9.73;;;4.97;;
55435;SDS011;41307;53.142;6.430;2022-10-16T17:34:29;15.73;;;6.50;;
55435;SDS011;41307;53.142;6.430;2022-10-16T17:37:18;11.93;;;6.68;;
55435;SDS011;41307;53.142;6.430;2022-10-16T17:40:03;12.48;;;6.57;;
55435;SDS011;41307;53.142;6.430;2022-10-16T17:43:02;15.10;;;7.50;;
55435;SDS011;41307;53.142;6.430;2022-10-16T17:45:49;10.77;;;6.75;;
55435;SDS011;41307;53.142;6.430;2022-10-16T17:48:18;16.33;;;7.30;;
55435;SDS011;41307;53.142;6.430;2022-10-16T17:50:55;15.68;;;7.50;;
55435;SDS011;41307;53.142;6.430;2022-10-16T17:53:58;11.25;;;6.63;;
55435;SDS011;41307;53.142;6.430;2022-10-16T17:56:42;10.90;;;6.03;;
55435;SDS011;41307;53.142;6.430;2022-10-16T17:59:16;12.45;;;6.10;;
55435;SDS011;41307;53.142;6.430;2022-10-16T18:02:08;11.55;;;6.22;;
55435;SDS011;41307;53.142;6.430;2022-10-16T18:04:48;14.80;;;7.18;;
55435;SDS011;41307;53.142;6.430;2022-10-16T18:07:36;14.18;;;6.82;;
55435;SDS011;41307;53.142;6.430;2022-10-16T18:10:12;12.45;;;5.90;;
55435;SDS011;41307;53.142;6.430;2022-10-16T18:23:47;9.98;;;4.72;;
55435;SDS011;41307;53.142;6.430;2022-10-16T18:28:57;13.70;;;4.90;;
55435;SDS011;41307;53.142;6.430;2022-10-16T18:31:44;12.85;;;4.95;;
55435;SDS011;41307;53.142;6.430;2022-10-16T18:34:13;13.15;;;4.70;;
55435;SDS011;41307;53.142;6.430;2022-10-16T18:43:47;10.90;;;4.45;;
55435;SDS011;41307;53.142;6.430;2022-10-16T18:46:19;13.85;;;4.95;;
55435;SDS011;41307;53.142;6.430;2022-10-16T18:54:27;11.88;;;4.35;;
55435;SDS011;41307;53.142;6.430;2022-10-16T18:56:54;9.80;;;3.60;;
55435;SDS011;41307;53.142;6.430;2022-10-16T18:59:41;12.73;;;4.18;;
55435;SDS011;41307;53.142;6.430;2022-10-16T19:02:14;9.75;;;4.40;;
55435;SDS011;41307;53.142;6.430;2022-10-16T19:04:54;9.88;;;3.85;;
55435;SDS011;41307;53.142;6.430;2022-10-16T19:07:30;13.27;;;4.90;;
55435;SDS011;41307;53.142;6.430;2022-10-16T19:13:01;15.65;;;4.82;;
55435;SDS011;41307;53.142;6.430;2022-10-16T19:15:30;15.02;;;4.10;;
55435;SDS011;41307;53.142;6.430;2022-10-16T19:18:10;12.02;;;4.15;;
55435;SDS011;41307;53.142;6.430;2022-10-16T19:20:51;11.60;;;4.18;;
55435;SDS011;41307;53.142;6.430;2022-10-16T19:26:58;7.35;;;3.50;;
55435;SDS011;41307;53.142;6.430;2022-10-16T19:29:24;10.30;;;3.47;;
55435;SDS011;41307;53.142;6.430;2022-10-16T19:31:53;12.50;;;3.55;;
55435;SDS011;41307;53.142;6.430;2022-10-16T19:34:27;8.98;;;3.60;;
55435;SDS011;41307;53.142;6.430;2022-10-16T19:36:58;10.93;;;3.05;;
55435;SDS011;41307;53.142;6.430;2022-10-16T19:39:35;9.25;;;3.67;;
55435;SDS011;41307;53.142;6.430;2022-10-16T19:42:05;12.23;;;3.67;;
55435;SDS011;41307;53.142;6.430;2022-10-16T19:44:42;7.60;;;2.83;;
55435;SDS011;41307;53.142;6.430;2022-10-16T19:47:08;9.15;;;2.85;;
55435;SDS011;41307;53.142;6.430;2022-10-16T19:49:41;12.82;;;4.03;;
55435;SDS011;41307;53.142;6.430;2022-10-16T19:52:21;10.82;;;3.90;;
55435;SDS011;41307;53.142;6.430;2022-10-16T19:54:59;12.30;;;3.53;;
55435;SDS011;41307;53.142;6.430;2022-10-16T19:57:33;8.90;;;3.00;;
55435;SDS011;41307;53.142;6.430;2022-10-16T20:00:06;9.43;;;3.38;;
55435;SDS011;41307;53.142;6.430;2022-10-16T20:02:33;7.25;;;2.53;;
55435;SDS011;41307;53.142;6.430;2022-10-16T20:05:03;11.35;;;3.78;;
55435;SDS011;41307;53.142;6.430;2022-10-16T20:07:29;13.07;;;3.60;;
55435;SDS011;41307;53.142;6.430;2022-10-16T20:09:58;12.85;;;4.32;;
55435;SDS011;41307;53.142;6.430;2022-10-16T20:12:23;15.68;;;4.95;;
55435;SDS011;41307;53.142;6.430;2022-10-16T20:14:49;12.32;;;4.53;;
55435;SDS011;41307;53.142;6.430;2022-10-16T20:17:15;12.63;;;4.03;;
55435;SDS011;41307;53.142;6.430;2022-10-16T20:19:41;14.05;;;4.72;;
55435;SDS011;41307;53.142;6.430;2022-10-16T20:22:06;10.30;;;3.63;;
55435;SDS011;41307;53.142;6.430;2022-10-16T20:24:32;15.40;;;4.07;;
55435;SDS011;41307;53.142;6.430;2022-10-16T20:26:58;13.00;;;3.90;;
55435;SDS011;41307;53.142;6.430;2022-10-16T20:29:25;17.55;;;4.93;;
55435;SDS011;41307;53.142;6.430;2022-10-16T20:31:50;12.23;;;4.00;;
55435;SDS011;41307;53.142;6.430;2022-10-16T20:34:16;17.00;;;6.22;;
55435;SDS011;41307;53.142;6.430;2022-10-16T20:36:42;20.15;;;6.22;;
55435;SDS011;41307;53.142;6.430;2022-10-16T20:39:10;17.23;;;5.60;;
55435;SDS011;41307;53.142;6.430;2022-10-16T20:41:37;13.40;;;4.72;;
55435;SDS011;41307;53.142;6.430;2022-10-16T20:44:04;12.57;;;4.38;;
55435;SDS011;41307;53.142;6.430;2022-10-16T20:46:30;10.68;;;4.03;;
55435;SDS011;41307;53.142;6.430;2022-10-16T20:48:56;10.85;;;3.70;;
55435;SDS011;41307;53.142;6.430;2022-10-16T20:51:24;10.75;;;3.78;;
55435;SDS011;41307;53.142;6.430;2022-10-16T20:53:56;11.77;;;4.15;;
55435;SDS011;41307;53.142;6.430;2022-10-16T20:56:23;9.77;;;3.80;;
55435;SDS011;41307;53.142;6.430;2022-10-16T20:58:50;8.68;;;3.92;;
55435;SDS011;41307;53.142;6.430;2022-10-16T21:01:17;11.77;;;3.70;;
55435;SDS011;41307;53.142;6.430;2022-10-16T21:03:52;12.48;;;4.05;;
55435;SDS011;41307;53.142;6.430;2022-10-16T21:06:20;9.18;;;3.63;;
55435;SDS011;41307;53.142;6.430;2022-10-16T21:08:45;13.52;;;4.38;;
55435;SDS011;41307;53.142;6.430;2022-10-16T21:11:15;11.50;;;3.80;;
55435;SDS011;41307;53.142;6.430;2022-10-16T21:13:43;8.80;;;3.42;;
55435;SDS011;41307;53.142;6.430;2022-10-16T21:16:12;9.57;;;3.40;;
55435;SDS011;41307;53.142;6.430;2022-10-16T21:18:39;10.85;;;5.57;;
55435;SDS011;41307;53.142;6.430;2022-10-16T21:21:07;10.95;;;3.72;;
55435;SDS011;41307;53.142;6.430;2022-10-16T21:23:34;10.20;;;3.72;;
55435;SDS011;41307;53.142;6.430;2022-10-16T21:26:00;11.43;;;3.60;;
55435;SDS011;41307;53.142;6.430;2022-10-16T21:28:27;13.45;;;3.40;;
55435;SDS011;41307;53.142;6.430;2022-10-16T21:30:56;11.02;;;3.38;;
55435;SDS011;41307;53.142;6.430;2022-10-16T21:33:23;8.57;;;3.35;;
55435;SDS011;41307;53.142;6.430;2022-10-16T21:35:49;9.32;;;3.03;;
55435;SDS011;41307;53.142;6.430;2022-10-16T21:38:15;7.93;;;3.83;;
55435;SDS011;41307;53.142;6.430;2022-10-16T21:40:40;11.43;;;3.75;;
55435;SDS011;41307;53.142;6.430;2022-10-16T21:43:06;10.70;;;3.42;;
55435;SDS011;41307;53.142;6.430;2022-10-16T21:45:32;6.88;;;3.45;;
55435;SDS011;41307;53.142;6.430;2022-10-16T21:47:58;10.55;;;3.60;;
55435;SDS011;41307;53.142;6.430;2022-10-16T21:50:24;8.07;;;2.92;;
55435;SDS011;41307;53.142;6.430;2022-10-16T21:52:50;10.05;;;3.78;;
55435;SDS011;41307;53.142;6.430;2022-10-16T21:55:16;7.55;;;3.08;;
55435;SDS011;41307;53.142;6.430;2022-10-16T21:57:42;9.18;;;3.67;;
55435;SDS011;41307;53.142;6.430;2022-10-16T22:00:07;11.15;;;3.30;;
55435;SDS011;41307;53.142;6.430;2022-10-16T22:02:34;8.93;;;3.95;;
55435;SDS011;41307;53.142;6.430;2022-10-16T22:05:00;8.20;;;3.63;;
55435;SDS011;41307;53.142;6.430;2022-10-16T22:07:26;7.03;;;3.15;;
55435;SDS011;41307;53.142;6.430;2022-10-16T22:09:52;7.80;;;3.38;;
55435;SDS011;41307;53.142;6.430;2022-10-16T22:12:17;7.22;;;3.35;;
55435;SDS011;41307;53.142;6.430;2022-10-16T22:14:44;10.05;;;3.47;;
55435;SDS011;41307;53.142;6.430;2022-10-16T22:17:10;7.68;;;3.90;;
55435;SDS011;41307;53.142;6.430;2022-10-16T22:19:36;8.50;;;3.45;;
55435;SDS011;41307;53.142;6.430;2022-10-16T22:22:05;11.10;;;3.60;;
55435;SDS011;41307;53.142;6.430;2022-10-16T22:24:31;8.05;;;3.92;;
55435;SDS011;41307;53.142;6.430;2022-10-16T22:26:57;13.38;;;3.83;;
55435;SDS011;41307;53.142;6.430;2022-10-16T22:29:22;10.60;;;3.90;;
55435;SDS011;41307;53.142;6.430;2022-10-16T22:31:51;11.30;;;3.72;;
55435;SDS011;41307;53.142;6.430;2022-10-16T22:34:18;11.32;;;3.72;;
55435;SDS011;41307;53.142;6.430;2022-10-16T22:36:44;9.65;;;3.50;;
55435;SDS011;41307;53.142;6.430;2022-10-16T22:39:12;7.35;;;3.83;;
55435;SDS011;41307;53.142;6.430;2022-10-16T22:41:37;8.75;;;3.88;;
55435;SDS011;41307;53.142;6.430;2022-10-16T22:44:03;5.38;;;2.78;;
55435;SDS011;41307;53.142;6.430;2022-10-16T22:46:29;7.05;;;3.10;;
55435;SDS011;41307;53.142;6.430;2022-10-16T22:48:55;8.38;;;3.42;;
55435;SDS011;41307;53.142;6.430;2022-10-16T22:51:22;7.30;;;3.22;;
55435;SDS011;41307;53.142;6.430;2022-10-16T22:53:48;8.73;;;4.28;;
55435;SDS011;41307;53.142;6.430;2022-10-16T22:56:16;7.10;;;3.17;;
55435;SDS011;41307;53.142;6.430;2022-10-16T22:58:42;10.38;;;3.83;;
55435;SDS011;41307;53.142;6.430;2022-10-16T23:01:09;8.88;;;2.92;;
55435;SDS011;41307;53.142;6.430;2022-10-16T23:03:47;11.35;;;3.30;;
55435;SDS011;41307;53.142;6.430;2022-10-16T23:06:13;10.43;;;3.33;;
55435;SDS011;41307;53.142;6.430;2022-10-16T23:08:39;10.60;;;3.13;;
55435;SDS011;41307;53.142;6.430;2022-10-16T23:11:05;8.23;;;3.28;;
55435;SDS011;41307;53.142;6.430;2022-10-16T23:13:38;9.95;;;3.22;;
55435;SDS011;41307;53.142;6.430;2022-10-16T23:16:09;8.63;;;3.47;;
55435;SDS011;41307;53.142;6.430;2022-10-16T23:18:36;9.43;;;3.80;;
55435;SDS011;41307;53.142;6.430;2022-10-16T23:21:06;7.57;;;3.20;;
55435;SDS011;41307;53.142;6.430;2022-10-16T23:23:34;7.45;;;3.63;;
55435;SDS011;41307;53.142;6.430;2022-10-16T23:26:00;6.72;;;3.65;;
55435;SDS011;41307;53.142;6.430;2022-10-16T23:28:26;8.15;;;3.58;;
55435;SDS011;41307;53.142;6.430;2022-10-16T23:30:52;10.60;;;3.78;;
55435;SDS011;41307;53.142;6.430;2022-10-16T23:33:17;9.32;;;3.10;;
55435;SDS011;41307;53.142;6.430;2022-10-16T23:35:43;8.43;;;3.33;;
55435;SDS011;41307;53.142;6.430;2022-10-16T23:38:09;10.63;;;3.47;;
55435;SDS011;41307;53.142;6.430;2022-10-16T23:40:34;9.52;;;3.45;;
55435;SDS011;41307;53.142;6.430;2022-10-16T23:43:00;11.38;;;3.20;;
55435;SDS011;41307;53.142;6.430;2022-10-16T23:45:26;9.93;;;3.85;;
55435;SDS011;41307;53.142;6.430;2022-10-16T23:47:51;12.23;;;3.33;;
55435;SDS011;41307;53.142;6.430;2022-10-16T23:50:17;10.02;;;3.63;;
55435;SDS011;41307;53.142;6.430;2022-10-16T23:52:43;9.48;;;3.22;;
55435;SDS011;41307;53.142;6.430;2022-10-16T23:55:09;10.20;;;3.75;;
55435;SDS011;41307;53.142;6.430;2022-10-16T23:57:34;11.88;;;3.58;;
